sensor_id;sensor_type;location;lat;lon;timestamp;P1;P2;P0
31163;PMS5003;17796;49.296;-117.656;2023-03-01T00:02:31;6;6;
31163;PMS5003;17796;49.296;-117.656;2023-03-01T00:17:35;13;13;
31163;PMS5003;17796;49.296;-117.656;2023-03-01T00:32:38;15;13;
31163;PMS5003;17796;49.296;-117.656;2023-03-01T00:47:44;15;14;
31163;PMS5003;17796;49.296;-117.656;2023-03-01T01:02:48;17;11;
31163;PMS5003;17796;49.296;-117.656;2023-03-01T01:17:52;6;6;
31163;PMS5003;17796;49.296;-117.656;2023-03-01T01:32:55;12;8;
31163;PMS5003;17796;49.296;-117.656;2023-03-01T01:48:03;13;9;
31163;PMS5003;17796;49.296;-117.656;2023-03-01T02:03:11;13;10;
31163;PMS5003;17796;49.296;-117.656;2023-03-01T02:18:18;18;11;
31163;PMS5003;17796;49.296;-117.656;2023-03-01T02:33:24;11;7;
31163;PMS5003;17796;49.296;-117.656;2023-03-01T02:48:29;6;5;
31163;PMS5003;17796;49.296;-117.656;2023-03-01T03:03:42;9;6;
31163;PMS5003;17796;49.296;-117.656;2023-03-01T03:18:46;8;7;
31163;PMS5003;17796;49.296;-117.656;2023-03-01T03:33:50;12;11;
31163;PMS5003;17796;49.296;-117.656;2023-03-01T03:48:54;7;7;
31163;PMS5003;17796;49.296;-117.656;2023-03-01T04:03:58;7;6;
31163;PMS5003;17796;49.296;-117.656;2023-03-01T04:19:01;5;5;
31163;PMS5003;17796;49.296;-117.656;2023-03-01T04:34:05;3;2;
31163;PMS5003;17796;49.296;-117.656;2023-03-01T04:49:08;3;3;
31163;PMS5003;17796;49.296;-117.656;2023-03-01T05:04:12;8;4;
31163;PMS5003;17796;49.296;-117.656;2023-03-01T05:19:16;4;3;
31163;PMS5003;17796;49.296;-117.656;2023-03-01T05:34:23;1;1;
31163;PMS5003;17796;49.296;-117.656;2023-03-01T05:49:26;1;1;
31163;PMS5003;17796;49.296;-117.656;2023-03-01T06:04:30;4;1;
31163;PMS5003;17796;49.296;-117.656;2023-03-01T06:19:34;2;2;
31163;PMS5003;17796;49.296;-117.656;2023-03-01T06:34:37;4;2;
31163;PMS5003;17796;49.296;-117.656;2023-03-01T06:49:41;3;3;
31163;PMS5003;17796;49.296;-117.656;2023-03-01T07:04:45;4;4;
31163;PMS5003;17796;49.296;-117.656;2023-03-01T07:19:49;2;2;
31163;PMS5003;17796;49.296;-117.656;2023-03-01T07:34:53;4;2;
31163;PMS5003;17796;49.296;-117.656;2023-03-01T07:49:56;3;3;
31163;PMS5003;17796;49.296;-117.656;2023-03-01T08:05:00;4;4;
31163;PMS5003;17796;49.296;-117.656;2023-03-01T08:20:04;4;4;
31163;PMS5003;17796;49.296;-117.656;2023-03-01T08:35:09;8;4;
31163;PMS5003;17796;49.296;-117.656;2023-03-01T08:50:13;3;3;
31163;PMS5003;17796;49.296;-117.656;2023-03-01T09:05:16;1;1;
31163;PMS5003;17796;49.296;-117.656;2023-03-01T09:20:20;4;2;
31163;PMS5003;17796;49.296;-117.656;2023-03-01T09:35:24;4;1;
31163;PMS5003;17796;49.296;-117.656;2023-03-01T09:50:32;1;1;
31163;PMS5003;17796;49.296;-117.656;2023-03-01T10:05:44;4;4;
31163;PMS5003;17796;49.296;-117.656;2023-03-01T10:20:53;7;3;
31163;PMS5003;17796;49.296;-117.656;2023-03-01T10:35:59;3;1;
31163;PMS5003;17796;49.296;-117.656;2023-03-01T10:51:07;2;2;
31163;PMS5003;17796;49.296;-117.656;2023-03-01T11:06:21;4;4;
31163;PMS5003;17796;49.296;-117.656;2023-03-01T11:21:26;0;0;
31163;PMS5003;17796;49.296;-117.656;2023-03-01T11:36:35;2;2;
31163;PMS5003;17796;49.296;-117.656;2023-03-01T11:51:46;1;1;
31163;PMS5003;17796;49.296;-117.656;2023-03-01T12:06:56;0;0;
31163;PMS5003;17796;49.296;-117.656;2023-03-01T12:22:29;3;3;
31163;PMS5003;17796;49.296;-117.656;2023-03-01T12:37:42;0;0;
31163;PMS5003;17796;49.296;-117.656;2023-03-01T12:52:53;1;1;
31163;PMS5003;17796;49.296;-117.656;2023-03-01T13:08:05;1;1;
31163;PMS5003;17796;49.296;-117.656;2023-03-01T13:23:23;11;7;
31163;PMS5003;17796;49.296;-117.656;2023-03-01T13:39:02;14;10;
31163;PMS5003;17796;49.296;-117.656;2023-03-01T13:54:12;12;11;
31163;PMS5003;17796;49.296;-117.656;2023-03-01T14:09:20;22;22;
31163;PMS5003;17796;49.296;-117.656;2023-03-01T14:24:24;16;15;
31163;PMS5003;17796;49.296;-117.656;2023-03-01T14:39:28;24;23;
31163;PMS5003;17796;49.296;-117.656;2023-03-01T14:54:38;20;15;
31163;PMS5003;17796;49.296;-117.656;2023-03-01T15:09:43;27;22;
31163;PMS5003;17796;49.296;-117.656;2023-03-01T15:24:49;21;18;
31163;PMS5003;17796;49.296;-117.656;2023-03-01T15:39:55;23;16;
31163;PMS5003;17796;49.296;-117.656;2023-03-01T15:55:01;20;20;
31163;PMS5003;17796;49.296;-117.656;2023-03-01T16:10:06;24;20;
31163;PMS5003;17796;49.296;-117.656;2023-03-01T16:25:11;19;19;
31163;PMS5003;17796;49.296;-117.656;2023-03-01T16:40:22;17;15;
31163;PMS5003;17796;49.296;-117.656;2023-03-01T16:55:36;14;14;
31163;PMS5003;17796;49.296;-117.656;2023-03-01T17:10:39;26;20;
31163;PMS5003;17796;49.296;-117.656;2023-03-01T17:25:44;38;28;
31163;PMS5003;17796;49.296;-117.656;2023-03-01T17:40:47;33;28;
31163;PMS5003;17796;49.296;-117.656;2023-03-01T17:55:59;65;53;
31163;PMS5003;17796;49.296;-117.656;2023-03-01T18:11:03;19;16;
31163;PMS5003;17796;49.296;-117.656;2023-03-01T18:26:09;20;15;
31163;PMS5003;17796;49.296;-117.656;2023-03-01T18:41:14;18;16;
31163;PMS5003;17796;49.296;-117.656;2023-03-01T18:56:18;23;20;
31163;PMS5003;17796;49.296;-117.656;2023-03-01T19:11:21;21;16;
31163;PMS5003;17796;49.296;-117.656;2023-03-01T19:26:26;36;26;
31163;PMS5003;17796;49.296;-117.656;2023-03-01T19:41:30;32;30;
31163;PMS5003;17796;49.296;-117.656;2023-03-01T19:56:34;15;15;
31163;PMS5003;17796;49.296;-117.656;2023-03-01T20:11:38;14;13;
31163;PMS5003;17796;49.296;-117.656;2023-03-01T20:26:42;22;16;
31163;PMS5003;17796;49.296;-117.656;2023-03-01T20:41:46;29;25;
31163;PMS5003;17796;49.296;-117.656;2023-03-01T20:56:49;21;20;
31163;PMS5003;17796;49.296;-117.656;2023-03-01T21:11:53;22;16;
31163;PMS5003;17796;49.296;-117.656;2023-03-01T21:26:57;14;13;
31163;PMS5003;17796;49.296;-117.656;2023-03-01T21:42:03;13;11;
31163;PMS5003;17796;49.296;-117.656;2023-03-01T21:57:06;16;14;
31163;PMS5003;17796;49.296;-117.656;2023-03-01T22:12:11;23;15;
31163;PMS5003;17796;49.296;-117.656;2023-03-01T22:27:15;29;21;
31163;PMS5003;17796;49.296;-117.656;2023-03-01T22:42:19;15;11;
31163;PMS5003;17796;49.296;-117.656;2023-03-01T22:57:22;15;11;
31163;PMS5003;17796;49.296;-117.656;2023-03-01T23:12:26;17;12;
31163;PMS5003;17796;49.296;-117.656;2023-03-01T23:27:30;22;10;
31163;PMS5003;17796;49.296;-117.656;2023-03-01T23:42:34;13;12;
31163;PMS5003;17796;49.296;-117.656;2023-03-01T23:57:37;24;22;
